Time;durP1;ratioP1;P1;durP2;ratioP2;P2;SDS_P1;SDS_P2;PMS_P1;PMS_P2;Temp;Humidity;BMP_temperature;BMP_pressure;BME280_temperature;BME280_humidity;BME280_pressure;Samples;Min_cycle;Max_cycle;Signal;HPM_P1;HPM_P2
2021/05/27 00:00:55;;;;;;;3.63;2.97;;;;;;;6.84;100.00;100452.16;2063400;28;20083;-60
2021/05/27 00:01:55;;;;;;;6.27;3.13;;;;;;;6.87;100.00;100453.00;2063017;28;20486;-60
2021/05/27 00:02:56;;;;;;;4.53;3.03;;;;;;;6.98;100.00;100445.97;2063131;28;20018;-60
2021/05/27 00:03:56;;;;;;;5.07;2.90;;;;;;;6.94;100.00;100452.06;2063125;28;20512;-60
2021/05/27 00:04:56;;;;;;;3.17;2.87;;;;;;;6.83;100.00;100445.25;2063590;28;20026;-61
2021/05/27 00:05:56;;;;;;;6.17;3.20;;;;;;;6.85;100.00;100453.88;2063182;28;21671;-61
2021/05/27 00:06:57;;;;;;;4.67;3.33;;;;;;;6.80;100.00;100447.91;2063399;28;20037;-60
2021/05/27 00:07:58;;;;;;;3.43;3.13;;;;;;;6.89;100.00;100452.13;2063244;28;20034;-60
2021/05/27 00:08:58;;;;;;;5.20;3.30;;;;;;;6.99;100.00;100450.28;2068177;28;20029;-60
2021/05/27 00:09:58;;;;;;;4.30;3.27;;;;;;;6.90;100.00;100448.66;2070969;28;20822;-60
2021/05/27 00:10:58;;;;;;;4.23;3.10;;;;;;;6.89;100.00;100449.53;2063638;28;20105;-61
2021/05/27 00:11:59;;;;;;;7.33;3.33;;;;;;;6.85;100.00;100445.28;2063297;28;20037;-60
2021/05/27 00:13:00;;;;;;;5.13;3.40;;;;;;;6.93;100.00;100443.44;2063441;28;20304;-61
2021/05/27 00:14:00;;;;;;;6.45;3.40;;;;;;;6.84;100.00;100441.81;2063510;28;20051;-60
2021/05/27 00:15:01;;;;;;;7.00;4.07;;;;;;;6.89;100.00;100451.28;2063390;28;20064;-60
2021/05/27 00:16:02;;;;;;;7.25;3.72;;;;;;;6.80;100.00;100447.03;2063563;28;20113;-60
2021/05/27 00:17:02;;;;;;;5.77;3.63;;;;;;;6.75;100.00;100454.84;2066545;28;20030;-60
2021/05/27 00:18:03;;;;;;;7.10;3.53;;;;;;;6.74;100.00;100445.34;2071690;28;20061;-60
2021/05/27 00:19:03;;;;;;;5.27;3.50;;;;;;;6.74;100.00;100447.94;2071559;28;20033;-60
2021/05/27 00:20:08;;;;;;;4.13;3.67;;;;;;;6.73;100.00;100450.56;2070782;28;20109;-60
2021/05/27 00:21:08;;;;;;;5.40;3.60;;;;;;;6.82;100.00;100445.28;2063510;28;20038;-60
2021/05/27 00:22:08;;;;;;;7.20;3.60;;;;;;;6.89;100.00;100444.34;2063456;28;20062;-60
2021/05/27 00:23:09;;;;;;;4.90;3.30;;;;;;;6.97;100.00;100445.09;2064857;28;20026;-60
2021/05/27 00:24:09;;;;;;;5.00;3.53;;;;;;;6.85;100.00;100446.09;2070432;28;20037;-60
2021/05/27 00:25:11;;;;;;;6.93;3.60;;;;;;;6.80;100.00;100447.91;2073082;28;20021;-60
2021/05/27 00:26:11;;;;;;;7.65;3.75;;;;;;;6.83;100.00;100447.84;2072254;28;20096;-60
2021/05/27 00:27:12;;;;;;;6.60;3.60;;;;;;;6.83;100.00;100449.59;2059239;28;20763;-60
2021/05/27 00:28:12;;;;;;;5.90;3.80;;;;;;;6.82;100.00;100445.28;2069563;28;20049;-61
2021/05/27 00:29:12;;;;;;;4.60;3.63;;;;;;;6.79;100.00;100442.72;2065126;28;20391;-61
2021/05/27 00:30:14;;;;;;;5.50;4.00;;;;;;;6.81;100.00;100446.16;2067236;28;20058;-60
2021/05/27 00:31:15;;;;;;;7.15;4.15;;;;;;;6.82;100.00;100451.31;2072847;28;20119;-60
2021/05/27 00:32:15;;;;;;;4.87;3.77;;;;;;;6.84;100.00;100449.56;2072904;28;20084;-60
2021/05/27 00:33:15;;;;;;;6.97;4.03;;;;;;;6.83;100.00;100447.84;2072725;28;20390;-60
2021/05/27 00:34:16;;;;;;;9.07;4.00;;;;;;;6.79;100.00;100445.31;2073237;28;20574;-60
2021/05/27 00:35:16;;;;;;;5.27;4.30;;;;;;;6.79;100.00;100448.78;2073055;28;20381;-61
2021/05/27 00:36:16;;;;;;;5.07;4.13;;;;;;;6.79;100.00;100445.31;2073228;28;20387;-61
2021/05/27 00:37:17;;;;;;;5.93;4.20;;;;;;;6.88;100.00;100449.56;2073122;28;20499;-61
2021/05/27 00:38:17;;;;;;;7.28;4.60;;;;;;;6.85;100.00;100451.28;2073191;28;20482;-61
2021/05/27 00:39:18;;;;;;;6.57;3.93;;;;;;;6.77;100.00;100447.94;2073135;28;20136;-61
2021/05/27 00:40:18;;;;;;;4.97;3.92;;;;;;;6.78;100.00;100449.66;2070807;28;20033;-61
2021/05/27 00:41:19;;;;;;;7.07;4.33;;;;;;;6.71;100.00;100450.56;2064973;28;20105;-60
2021/05/27 00:42:19;;;;;;;6.23;4.47;;;;;;;6.78;100.00;100454.84;2064926;28;20022;-61
2021/05/27 00:43:19;;;;;;;5.97;4.40;;;;;;;6.71;100.00;100453.16;2064942;28;20023;-61
2021/05/27 00:44:31;;;;;;;6.07;4.73;;;;;;;6.75;100.00;100454.84;2065180;28;20026;-61
2021/05/27 00:45:31;;;;;;;5.43;4.35;;;;;;;6.77;100.00;100458.28;2065076;28;20037;-61
2021/05/27 00:46:31;;;;;;;6.27;4.20;;;;;;;6.74;100.00;100452.28;2065137;28;20113;-61
2021/05/27 00:47:33;;;;;;;6.23;4.03;;;;;;;6.81;100.00;100457.38;2065010;28;20491;-61
2021/05/27 00:49:52;;;;;;;8.30;4.50;;;;;;;6.78;100.00;100460.00;2064999;28;20038;-61
2021/05/27 00:50:52;;;;;;;5.50;4.57;;;;;;;6.81;100.00;100457.38;2065112;28;20112;-60
2021/05/27 00:51:53;;;;;;;5.70;4.40;;;;;;;6.85;100.00;100451.28;2064467;28;20621;-60
2021/05/27 00:52:55;;;;;;;4.70;4.20;;;;;;;6.85;100.00;100461.66;2071964;28;20041;-60
2021/05/27 00:53:56;;;;;;;6.20;4.32;;;;;;;6.84;100.00;100459.94;2071956;28;20658;-60
2021/05/27 00:54:58;;;;;;;11.77;4.60;;;;;;;6.84;100.00;100459.09;2072762;28;20038;-60
2021/05/27 00:55:59;;;;;;;4.90;4.40;;;;;;;6.82;100.00;100459.09;2072626;28;20041;-60
2021/05/27 00:56:59;;;;;;;5.53;4.53;;;;;;;6.77;100.00;100463.47;2072998;28;20529;-61
2021/05/27 00:58:02;;;;;;;10.32;4.70;;;;;;;6.82;100.00;100463.44;2072505;28;20076;-61
2021/05/27 00:59:03;;;;;;;6.53;4.53;;;;;;;6.81;100.00;100462.53;2071608;28;20057;-60
2021/05/27 01:00:24;;;;;;;7.90;4.95;;;;;;;6.83;100.00;100458.22;2069701;28;20830;-60
2021/05/27 01:01:24;;;;;;;7.30;6.05;;;;;;;6.82;100.00;100459.09;2070433;28;20084;-60
2021/05/27 01:02:26;;;;;;;8.93;4.97;;;;;;;6.89;100.00;100467.66;2066825;28;20085;-61
2021/05/27 01:03:26;;;;;;;;;;;;;;;6.93;100.00;100453.81;2065028;28;20030;-60
2021/05/27 01:04:26;;;;;;;6.57;5.15;;;;;;;6.87;100.00;100468.56;2064286;28;19949;-60
2021/05/27 01:05:28;;;;;;;7.10;4.77;;;;;;;6.90;100.00;100458.16;2067531;28;20088;-61
2021/05/27 01:06:28;;;;;;;5.97;4.88;;;;;;;6.91;100.00;100463.31;2071516;28;20039;-61
2021/05/27 01:07:29;;;;;;;5.27;4.37;;;;;;;6.94;100.00;100460.72;2068056;28;20038;-61
2021/05/27 01:08:29;;;;;;;4.70;4.23;;;;;;;6.98;100.00;100464.13;2068321;28;20022;-60
2021/05/27 01:09:30;;;;;;;7.03;4.80;;;;;;;6.87;100.00;100458.19;2068300;28;20646;-61
2021/05/27 01:10:30;;;;;;;5.60;4.53;;;;;;;6.88;100.00;100458.16;2068543;28;20276;-61
2021/05/27 01:11:31;;;;;;;8.23;5.47;;;;;;;6.92;100.00;100459.00;2067378;28;20041;-60
2021/05/27 01:12:31;;;;;;;5.53;4.57;;;;;;;6.86;100.00;100452.13;2068254;28;20642;-61
2021/05/27 01:13:32;;;;;;;7.30;4.50;;;;;;;6.83;100.00;100460.81;2068236;28;20034;-61
2021/05/27 01:15:52;;;;;;;5.90;4.30;;;;;;;6.79;100.00;100456.56;2064540;28;20042;-61
2021/05/27 01:16:52;;;;;;;5.35;4.80;;;;;;;6.77;100.00;100463.47;2064496;28;20589;-61
2021/05/27 01:17:53;;;;;;;11.63;4.87;;;;;;;6.72;100.00;100457.47;2064574;28;20096;-61
2021/05/27 01:18:53;;;;;;;8.27;4.80;;;;;;;6.87;100.00;100458.19;2064582;28;20482;-57
2021/05/27 01:19:54;;;;;;;6.10;5.23;;;;;;;6.84;100.00;100459.94;2064765;28;20402;-57
2021/05/27 01:20:57;;;;;;;8.27;5.13;;;;;;;6.83;100.00;100455.63;2070932;28;20030;-57
2021/05/27 01:21:57;;;;;;;8.05;5.07;;;;;;;6.75;100.00;100454.84;2071804;28;20026;-57
2021/05/27 01:22:58;;;;;;;9.07;4.90;;;;;;;6.73;100.00;100451.41;2064453;28;20475;-57
2021/05/27 01:24:00;;;;;;;7.40;5.13;;;;;;;6.76;100.00;100455.72;2064657;28;20113;-58
2021/05/27 01:25:00;;;;;;;9.73;5.22;;;;;;;6.66;100.00;100457.53;2064498;28;20332;-57
2021/05/27 01:26:01;;;;;;;9.73;5.30;;;;;;;6.70;100.00;100454.91;2064662;28;20026;-58
2021/05/27 01:27:02;;;;;;;10.52;5.00;;;;;;;6.77;100.00;100455.69;2069851;28;20018;-57
2021/05/27 01:28:02;;;;;;;7.53;4.83;;;;;;;6.84;100.00;100452.16;2064691;28;20550;-57
2021/05/27 01:29:03;;;;;;;8.88;5.03;;;;;;;6.83;100.00;100449.59;2065002;28;20269;-57
2021/05/27 01:30:08;;;;;;;6.93;5.17;;;;;;;6.76;100.00;100456.56;2072712;28;20042;-58
2021/05/27 01:31:10;;;;;;;6.57;4.85;;;;;;;6.69;100.00;100454.94;2072748;28;20026;-57
2021/05/27 01:32:10;;;;;;;7.90;4.93;;;;;;;6.69;100.00;100449.75;2072373;28;20053;-57
2021/05/27 01:33:15;;;;;;;7.40;4.80;;;;;;;6.66;100.00;100447.19;2070974;28;20030;-57
2021/05/27 01:34:15;;;;;;;6.43;5.03;;;;;;;6.60;100.00;100447.25;2071601;28;20030;-57
2021/05/27 01:35:19;;;;;;;8.73;4.30;;;;;;;6.60;100.00;100448.09;2072554;28;20029;-57
2021/05/27 01:36:19;;;;;;;5.82;4.50;;;;;;;6.58;100.00;100444.66;2072608;28;20403;-58
2021/05/27 01:37:20;;;;;;;6.93;5.10;;;;;;;6.59;100.00;100442.94;2072668;28;20113;-57
2021/05/27 01:38:21;;;;;;;9.77;5.03;;;;;;;6.65;100.00;100450.63;2071728;28;20467;-57
2021/05/27 01:39:22;;;;;;;8.48;4.97;;;;;;;6.61;100.00;100448.97;2071985;28;20061;-57
2021/05/27 01:40:24;;;;;;;8.87;4.90;;;;;;;6.56;100.00;100454.19;2067994;28;20403;-58
2021/05/27 01:41:24;;;;;;;7.70;5.22;;;;;;;6.51;100.00;100456.81;2067766;28;20081;-57
2021/05/27 01:42:25;;;;;;;5.80;5.10;;;;;;;6.60;100.00;100457.63;2064034;28;20034;-57
2021/05/27 01:43:25;;;;;;;8.27;5.73;;;;;;;6.72;100.00;100444.50;2067578;28;20478;-57
2021/05/27 01:44:25;;;;;;;8.10;5.47;;;;;;;6.72;100.00;100452.28;2064274;28;20045;-57
2021/05/27 01:45:26;;;;;;;7.80;5.17;;;;;;;6.85;100.00;100455.63;2064405;28;20487;-57
2021/05/27 01:46:26;;;;;;;7.53;5.30;;;;;;;6.75;100.00;100452.25;2064358;28;20042;-57
2021/05/27 01:47:26;;;;;;;9.93;5.23;;;;;;;6.81;100.00;100454.78;2064445;28;20038;-57
2021/05/27 01:48:27;;;;;;;7.53;5.13;;;;;;;6.77;100.00;100450.53;2064351;28;20061;-57
2021/05/27 01:49:27;;;;;;;9.87;5.27;;;;;;;6.83;100.00;100453.03;2064484;28;20022;-58
2021/05/27 01:50:27;;;;;;;6.50;5.63;;;;;;;6.87;100.00;100450.41;2071676;28;20053;-57
2021/05/27 01:51:28;;;;;;;9.57;5.50;;;;;;;6.76;100.00;100447.97;2071593;28;20029;-57
2021/05/27 01:52:28;;;;;;;7.80;5.18;;;;;;;6.74;100.00;100453.13;2064251;28;20034;-57
2021/05/27 01:53:29;;;;;;;6.27;5.17;;;;;;;6.84;100.00;100454.75;2065067;28;20037;-57
2021/05/27 01:54:30;;;;;;;5.93;5.15;;;;;;;6.78;100.00;100448.78;2072133;28;20402;-57
2021/05/27 01:55:30;;;;;;;9.50;5.60;;;;;;;6.74;100.00;100447.94;2072441;28;20045;-57
2021/05/27 01:56:31;;;;;;;6.45;5.32;;;;;;;6.76;100.00;100448.81;2072285;28;20045;-57
2021/05/27 01:57:31;;;;;;;8.43;5.80;;;;;;;6.74;100.00;100453.13;2072455;28;20026;-57
2021/05/27 01:58:32;;;;;;;6.90;5.00;;;;;;;6.82;100.00;100455.66;2072323;28;20530;-57
2021/05/27 01:59:32;;;;;;;9.05;5.20;;;;;;;6.95;100.00;100446.88;2072487;28;20708;-57
2021/05/27 02:00:33;;;;;;;7.53;4.97;;;;;;;6.91;100.00;100454.69;2072286;28;20037;-58
2021/05/27 02:01:33;;;;;;;7.67;5.30;;;;;;;6.90;100.00;100458.16;2072265;28;20498;-57
2021/05/27 02:02:34;;;;;;;7.93;5.50;;;;;;;6.88;100.00;100460.75;2077239;28;20655;-58
2021/05/27 02:03:34;;;;;;;5.57;5.00;;;;;;;6.89;100.00;100462.47;2071791;28;20028;-57
2021/05/27 02:04:34;;;;;;;6.13;5.43;;;;;;;6.90;100.00;100460.75;2064068;28;20527;-57
2021/05/27 02:05:35;;;;;;;5.47;4.97;;;;;;;6.96;100.00;100463.28;2064300;28;20096;-57
2021/05/27 02:06:35;;;;;;;8.60;5.37;;;;;;;6.89;100.00;100461.63;2064129;28;20116;-58
2021/05/27 02:07:35;;;;;;;7.03;4.93;;;;;;;6.82;100.00;100461.69;2064287;28;20073;-57
2021/05/27 02:08:36;;;;;;;7.17;5.17;;;;;;;6.78;100.00;100470.38;2064272;28;20022;-58
2021/05/27 02:09:36;;;;;;;8.97;5.50;;;;;;;6.81;100.00;100470.31;2064070;28;20620;-57
2021/05/27 02:10:36;;;;;;;7.43;5.33;;;;;;;6.72;100.00;100469.56;2063958;28;20053;-58
2021/05/27 02:11:46;;;;;;;6.07;5.23;;;;;;;6.74;100.00;100470.41;2063487;28;20026;-58
2021/05/27 02:12:46;;;;;;;6.30;4.80;;;;;;;6.79;100.00;100468.63;2066311;28;20033;-57
2021/05/27 02:13:46;;;;;;;5.90;5.27;;;;;;;6.75;100.00;100482.50;2071145;28;20561;-57
2021/05/27 02:14:46;;;;;;;7.07;4.60;;;;;;;6.70;100.00;100480.81;2071614;28;20022;-57
2021/05/27 02:15:47;;;;;;;10.40;5.50;;;;;;;6.76;100.00;100472.13;2072233;28;20041;-57
2021/05/27 02:16:47;;;;;;;9.90;5.13;;;;;;;6.77;100.00;100475.53;2072385;28;20034;-57
2021/05/27 02:17:47;;;;;;;6.53;5.33;;;;;;;6.80;100.00;100478.13;2072255;28;20117;-58
2021/05/27 02:18:47;;;;;;;7.60;5.57;;;;;;;6.73;100.00;100471.28;2072448;28;20030;-57
2021/05/27 02:19:48;;;;;;;5.97;4.80;;;;;;;6.68;100.00;100474.78;2072236;28;20030;-57
2021/05/27 02:20:48;;;;;;;8.30;5.03;;;;;;;6.68;100.00;100481.69;2070650;28;20671;-57
2021/05/27 02:21:48;;;;;;;7.57;5.20;;;;;;;6.61;100.00;100473.13;2072075;28;20028;-57
2021/05/27 02:22:49;;;;;;;6.90;4.83;;;;;;;6.61;100.00;100477.47;2071618;28;20088;-57
2021/05/27 02:23:55;;;;;;;5.87;4.93;;;;;;;6.63;100.00;100468.78;2072191;28;20026;-58
2021/05/27 02:24:55;;;;;;;8.85;5.20;;;;;;;6.64;100.00;100473.09;2072140;28;20029;-57
2021/05/27 02:25:55;;;;;;;6.97;5.10;;;;;;;6.66;100.00;100476.50;2072065;28;20109;-58
2021/05/27 02:26:56;;;;;;;6.60;5.30;;;;;;;6.72;100.00;100477.34;2071078;28;20518;-58
2021/05/27 02:27:56;;;;;;;7.97;4.87;;;;;;;6.68;100.00;100481.69;2064108;28;20098;-57
2021/05/27 02:28:59;;;;;;;8.77;5.33;;;;;;;6.60;100.00;100480.91;2064315;28;20030;-58
2021/05/27 02:29:59;;;;;;;7.32;5.20;;;;;;;6.59;100.00;100479.19;2064002;28;20026;-57
2021/05/27 02:31:00;;;;;;;6.88;5.35;;;;;;;6.60;100.00;100483.50;2064183;28;20088;-57
2021/05/27 02:32:00;;;;;;;5.30;4.80;;;;;;;6.58;100.00;100480.06;2063795;28;20122;-57
2021/05/27 02:33:01;;;;;;;6.20;5.30;;;;;;;6.68;100.00;100477.38;2068029;28;20453;-58
2021/05/27 02:34:02;;;;;;;6.20;5.60;;;;;;;6.57;100.00;100480.94;2072155;28;20054;-58
2021/05/27 02:35:02;;;;;;;7.80;5.40;;;;;;;6.46;100.00;100481.88;2072013;28;20044;-58
2021/05/27 02:36:03;;;;;;;6.87;5.43;;;;;;;6.43;100.00;100483.66;2071984;28;20109;-58
2021/05/27 02:37:04;;;;;;;7.97;5.55;;;;;;;6.53;100.00;100477.53;2072119;28;20286;-58
2021/05/27 02:38:04;;;;;;;9.75;5.78;;;;;;;6.45;100.00;100487.94;2072089;28;20030;-57
2021/05/27 02:39:05;;;;;;;8.03;5.40;;;;;;;6.41;100.00;100486.25;2072169;28;20022;-58
2021/05/27 02:40:06;;;;;;;14.10;5.72;;;;;;;6.39;100.00;100488.00;2072064;28;20036;-58
2021/05/27 02:41:07;;;;;;;7.97;5.53;;;;;;;6.37;100.00;100484.56;2070885;28;20125;-57
2021/05/27 02:42:08;;;;;;;6.30;5.28;;;;;;;6.48;100.00;100482.75;2071060;28;20024;-58
2021/05/27 02:43:08;;;;;;;9.80;5.57;;;;;;;6.41;100.00;100486.25;2071975;28;20053;-58
2021/05/27 02:44:08;;;;;;;7.00;5.50;;;;;;;6.39;100.00;100490.59;2072070;28;20068;-58
2021/05/27 02:45:09;;;;;;;7.63;5.43;;;;;;;6.40;100.00;100484.53;2071931;28;20018;-57
2021/05/27 02:46:10;;;;;;;10.85;6.32;;;;;;;6.40;100.00;100489.72;2072068;28;20033;-58
2021/05/27 02:47:10;;;;;;;9.75;5.93;;;;;;;6.42;100.00;100492.28;2072070;28;20479;-58
2021/05/27 02:48:10;;;;;;;6.67;5.97;;;;;;;6.32;100.00;100491.53;2072192;28;20032;-58
2021/05/27 02:49:11;;;;;;;9.23;6.23;;;;;;;6.29;100.00;100479.44;2072269;28;20041;-57
2021/05/27 02:50:11;;;;;;;8.47;5.80;;;;;;;6.39;100.00;100493.19;2072022;28;20038;-58
2021/05/27 02:51:12;;;;;;;7.65;6.15;;;;;;;6.29;100.00;100486.34;2071288;28;20036;-57
2021/05/27 02:52:12;;;;;;;7.40;6.17;;;;;;;6.35;100.00;100486.28;2071694;28;20792;-58
2021/05/27 02:53:12;;;;;;;7.17;6.17;;;;;;;6.26;100.00;100492.44;2071803;28;20116;-57
2021/05/27 02:54:14;;;;;;;8.33;6.70;;;;;;;6.18;100.00;100486.41;2071957;28;20032;-58
2021/05/27 02:55:14;;;;;;;;;;;;;;;6.16;100.00;100494.22;2071512;28;20112;-57
2021/05/27 02:56:14;;;;;;;9.38;6.03;;;;;;;6.27;100.00;100482.91;2071512;28;19909;-58
2021/05/27 02:57:14;;;;;;;8.53;6.43;;;;;;;6.06;100.00;100483.06;2071698;28;20180;-57
2021/05/27 02:58:15;;;;;;;8.73;5.70;;;;;;;6.09;100.00;100492.53;2071325;28;20049;-57
2021/05/27 02:59:15;;;;;;;12.73;6.20;;;;;;;6.10;100.00;100486.50;2071215;28;20018;-57
2021/05/27 03:00:16;;;;;;;9.33;6.17;;;;;;;6.15;100.00;100492.47;2072001;28;20076;-57
2021/05/27 03:01:17;;;;;;;7.50;6.30;;;;;;;6.11;100.00;100484.75;2068345;28;20085;-57
2021/05/27 03:02:17;;;;;;;10.18;6.32;;;;;;;6.10;100.00;100489.09;2063611;28;20101;-58
2021/05/27 03:03:20;;;;;;;7.43;6.20;;;;;;;6.18;100.00;100481.25;2063428;28;20022;-58
2021/05/27 03:04:21;;;;;;;11.30;6.65;;;;;;;6.11;100.00;100485.63;2063897;28;20054;-57
2021/05/27 03:05:21;;;;;;;7.57;5.90;;;;;;;6.05;100.00;100483.94;2063619;28;20029;-57
2021/05/27 03:06:22;;;;;;;8.65;6.10;;;;;;;6.02;100.00;100483.97;2063732;28;20455;-57
2021/05/27 03:07:22;;;;;;;7.10;6.23;;;;;;;6.10;100.00;100486.50;2063741;28;20076;-57
2021/05/27 03:08:22;;;;;;;8.17;6.63;;;;;;;6.11;100.00;100483.03;2063839;28;20026;-57
2021/05/27 03:09:22;;;;;;;8.23;6.57;;;;;;;6.02;100.00;100483.13;2063661;28;20717;-57
2021/05/27 03:10:23;;;;;;;10.93;7.33;;;;;;;6.01;100.00;100486.56;2063858;28;20090;-58
2021/05/27 03:11:23;;;;;;;11.57;6.77;;;;;;;6.07;100.00;100481.34;2066608;28;20079;-57
2021/05/27 03:12:24;;;;;;;14.50;8.20;;;;;;;6.08;100.00;100480.47;2071545;28;20041;-57
2021/05/27 03:13:24;;;;;;;8.20;6.27;;;;;;;6.17;100.00;100483.00;2071549;28;20269;-57
2021/05/27 03:14:25;;;;;;;8.07;6.32;;;;;;;6.15;100.00;100478.69;2063545;28;20042;-57
2021/05/27 03:15:25;;;;;;;8.47;7.07;;;;;;;6.09;100.00;100479.59;2063561;28;20037;-58
2021/05/27 03:16:25;;;;;;;9.07;6.17;;;;;;;6.11;100.00;100482.16;2063803;28;20120;-57
2021/05/27 03:17:25;;;;;;;9.23;6.80;;;;;;;6.11;100.00;100483.03;2063707;28;20038;-57
2021/05/27 03:18:27;;;;;;;8.13;6.60;;;;;;;6.08;100.00;100480.47;2063736;28;20887;-57
2021/05/27 03:19:27;;;;;;;10.90;6.20;;;;;;;6.11;100.00;100488.22;2063681;28;20092;-57
2021/05/27 03:20:27;;;;;;;10.70;6.40;;;;;;;6.15;100.00;100486.47;2063706;28;20070;-57
2021/05/27 03:21:27;;;;;;;11.30;6.17;;;;;;;6.11;100.00;100483.03;2066847;28;20112;-58
2021/05/27 03:22:28;;;;;;;8.03;6.40;;;;;;;6.04;100.00;100479.63;2071548;28;20447;-57
2021/05/27 03:23:28;;;;;;;8.67;5.90;;;;;;;6.04;100.00;100481.34;2071884;28;20079;-58
2021/05/27 03:24:28;;;;;;;11.60;7.20;;;;;;;6.03;100.00;100484.81;2071734;28;20030;-57
2021/05/27 03:25:29;;;;;;;13.77;6.53;;;;;;;6.05;100.00;100477.91;2071878;28;20040;-58
2021/05/27 03:26:30;;;;;;;12.07;6.57;;;;;;;6.02;100.00;100483.97;2071722;28;20469;-57
2021/05/27 03:27:30;;;;;;;7.00;6.23;;;;;;;6.11;100.00;100482.16;2071921;28;20116;-57
2021/05/27 03:28:30;;;;;;;8.23;5.97;;;;;;;6.03;100.00;100475.31;2071773;28;20022;-57
2021/05/27 03:29:31;;;;;;;8.83;6.47;;;;;;;6.08;100.00;100481.31;2071817;28;20033;-57
2021/05/27 03:30:31;;;;;;;7.53;6.20;;;;;;;6.06;100.00;100484.78;2071718;28;20029;-57
2021/05/27 03:31:31;;;;;;;9.03;6.40;;;;;;;6.03;100.00;100484.81;2067719;28;20069;-57
2021/05/27 03:32:32;;;;;;;9.47;6.50;;;;;;;6.00;100.00;100484.84;2063493;28;20274;-57
2021/05/27 03:33:32;;;;;;;13.83;6.40;;;;;;;5.99;100.00;100483.09;2063771;28;20038;-58
2021/05/27 03:34:33;;;;;;;8.77;6.30;;;;;;;5.98;100.00;100486.53;2063440;28;20035;-57
2021/05/27 03:35:34;;;;;;;7.72;6.10;;;;;;;6.00;100.00;100490.88;2063712;28;20038;-57
2021/05/27 03:36:34;;;;;;;8.77;6.97;;;;;;;6.05;100.00;100490.84;2063707;28;20034;-57
2021/05/27 03:37:35;;;;;;;11.13;6.37;;;;;;;6.00;100.00;100490.03;2063797;28;20058;-57
2021/05/27 03:38:35;;;;;;;7.13;6.28;;;;;;;6.04;100.00;100502.94;2063637;28;20037;-57
2021/05/27 03:39:35;;;;;;;9.93;6.87;;;;;;;6.05;100.00;100499.47;2063776;28;20037;-57
2021/05/27 03:40:36;;;;;;;8.40;6.30;;;;;;;6.04;100.00;100497.75;2063611;28;20034;-58
2021/05/27 03:41:36;;;;;;;7.80;6.40;;;;;;;6.08;100.00;100501.16;2067293;28;20034;-57
2021/05/27 03:42:42;;;;;;;7.33;6.00;;;;;;;6.03;100.00;100495.16;2071617;28;20908;-57
2021/05/27 03:43:42;;;;;;;9.88;6.60;;;;;;;6.20;100.00;100501.09;2071741;28;20464;-57
2021/05/27 03:44:42;;;;;;;9.07;6.70;;;;;;;6.10;100.00;100502.03;2071595;28;20030;-57
2021/05/27 03:45:43;;;;;;;10.17;6.13;;;;;;;6.10;100.00;100502.03;2079234;28;20025;-57
2021/05/27 03:46:43;;;;;;;7.10;6.40;;;;;;;6.17;100.00;100498.50;2079214;28;20793;-57
2021/05/27 03:47:44;;;;;;;9.40;6.70;;;;;;;6.19;100.00;100506.25;2071816;28;20025;-57
2021/05/27 03:48:44;;;;;;;11.77;6.53;;;;;;;6.17;100.00;100506.28;2071734;28;20056;-58
2021/05/27 03:49:45;;;;;;;8.40;6.37;;;;;;;6.29;100.00;100504.47;2071884;28;20472;-58
2021/05/27 03:50:45;;;;;;;10.87;6.30;;;;;;;6.27;100.00;100498.44;2071904;28;20037;-57
2021/05/27 03:51:45;;;;;;;6.60;6.00;;;;;;;6.21;100.00;100502.81;2067231;28;20112;-57
2021/05/27 03:52:46;;;;;;;7.53;6.50;;;;;;;6.45;100.00;100495.72;2063722;28;20475;-57
2021/05/27 03:53:46;;;;;;;11.45;6.35;;;;;;;6.47;100.00;100501.75;2063725;28;20056;-57
2021/05/27 03:54:47;;;;;;;9.97;6.37;;;;;;;6.53;100.00;100499.09;2063712;28;20381;-57
2021/05/27 03:55:47;;;;;;;9.37;6.00;;;;;;;6.58;100.00;100500.78;2071018;28;20061;-57
2021/05/27 03:56:47;;;;;;;8.67;6.07;;;;;;;6.58;100.00;100499.03;2071275;28;20112;-57
2021/05/27 03:57:51;;;;;;;9.70;6.43;;;;;;;6.51;100.00;100500.84;2064863;28;20034;-57
2021/05/27 04:01:33;;;;;;;10.05;5.90;;;;;;;6.53;100.00;100499.09;2066539;28;20566;-57
2021/05/27 04:02:34;;;;;;;8.67;5.63;;;;;;;6.57;100.00;100499.06;2072279;28;20029;-58
2021/05/27 04:07:31;;;;;;;12.82;5.90;;;;;;;6.57;100.00;100509.41;2073270;28;20101;-57
2021/05/27 04:08:31;;;;;;;7.77;5.37;;;;;;;6.69;100.00;100506.72;2073446;28;20022;-58
2021/05/27 04:09:32;;;;;;;7.57;5.60;;;;;;;6.63;100.00;100502.47;2072598;28;20026;-58
2021/05/27 04:10:33;;;;;;;10.90;6.03;;;;;;;6.76;100.00;100504.94;2072213;28;20515;-57
2021/05/27 04:11:33;;;;;;;10.90;5.93;;;;;;;6.66;100.00;100501.56;2070776;28;20104;-57
2021/05/27 04:12:46;;;;;;;9.73;5.73;;;;;;;6.75;100.00;100511.84;2065210;28;20027;-58
2021/05/27 04:13:47;;;;;;;8.77;5.50;;;;;;;6.78;100.00;100506.66;2065186;28;20022;-58
2021/05/27 04:15:20;;;;;;;12.38;6.05;;;;;;;6.90;100.00;100510.00;2065223;28;20022;-57
2021/05/27 04:16:07;;;;;;;9.32;6.35;;;;;;;7.03;99.73;100501.19;2064939;28;20476;-57
2021/05/27 04:17:08;;;;;;;6.77;5.60;;;;;;;6.99;99.32;100500.38;2065186;28;20038;-58
2021/05/27 04:18:09;;;;;;;6.57;5.30;;;;;;;7.05;99.30;100508.97;2064932;28;20056;-57
2021/05/27 04:19:10;;;;;;;8.60;5.32;;;;;;;7.13;98.32;100502.81;2065015;28;20734;-57
2021/05/27 04:20:11;;;;;;;7.23;5.50;;;;;;;7.18;98.26;100504.50;2064785;28;20141;-57
2021/05/27 04:21:11;;;;;;;7.05;5.00;;;;;;;7.21;97.85;100507.03;2064974;28;20153;-58
2021/05/27 04:22:11;;;;;;;6.53;5.17;;;;;;;7.34;96.89;100511.22;2071264;28;20709;-57
2021/05/27 04:23:36;;;;;;;7.57;5.27;;;;;;;7.40;96.70;100507.69;2072832;28;20466;-58
2021/05/27 04:24:37;;;;;;;9.07;5.20;;;;;;;7.47;96.03;100507.63;2072782;28;20021;-57
2021/05/27 04:25:38;;;;;;;6.70;5.03;;;;;;;7.60;95.27;100513.50;2072865;28;20045;-57
2021/05/27 04:26:39;;;;;;;7.90;5.10;;;;;;;7.64;95.01;100514.31;2072743;28;20583;-57
2021/05/27 04:27:40;;;;;;;7.83;5.00;;;;;;;7.67;94.99;100510.81;2072923;28;20033;-57
2021/05/27 04:28:43;;;;;;;6.30;5.13;;;;;;;7.76;94.54;100508.97;2072811;28;20775;-58
2021/05/27 04:29:44;;;;;;;6.18;4.90;;;;;;;7.80;94.46;100512.38;2073042;28;20080;-57
2021/05/27 04:32:02;;;;;;;6.55;4.93;;;;;;;7.83;93.87;100514.06;2071018;28;20038;-58
2021/05/27 04:33:11;;;;;;;8.80;4.93;;;;;;;7.86;93.56;100514.03;2071809;28;20026;-58
2021/05/27 04:34:11;;;;;;;6.90;4.90;;;;;;;7.90;93.50;100515.69;2072270;28;20040;-58
2021/05/27 04:35:11;;;;;;;6.27;4.20;;;;;;;7.86;93.60;100512.28;2068492;28;20543;-58
2021/05/27 04:36:14;;;;;;;5.73;4.83;;;;;;;7.87;93.53;100511.41;2072250;28;20107;-57
2021/05/27 04:37:14;;;;;;;5.07;4.50;;;;;;;7.93;93.31;100508.75;2071352;28;20026;-59
2021/05/27 04:38:16;;;;;;;6.77;4.70;;;;;;;7.88;93.20;100514.88;2072017;28;20645;-57
2021/05/27 04:39:17;;;;;;;5.78;4.30;;;;;;;7.92;93.05;100513.94;2071760;28;20029;-57
2021/05/27 04:40:18;;;;;;;9.57;4.73;;;;;;;7.92;93.04;100511.34;2071878;28;20046;-57
2021/05/27 04:41:19;;;;;;;7.13;4.88;;;;;;;7.91;93.47;100514.81;2072848;28;20029;-57
2021/05/27 04:42:19;;;;;;;6.93;4.72;;;;;;;7.97;93.01;100516.47;2065669;28;20454;-57
2021/05/27 04:43:20;;;;;;;9.23;4.43;;;;;;;7.98;92.66;100516.47;2064656;28;20108;-58
2021/05/27 04:44:20;;;;;;;6.22;4.57;;;;;;;8.04;92.59;100513.75;2064973;28;20034;-57
2021/05/27 04:45:21;;;;;;;7.30;4.90;;;;;;;8.14;92.14;100516.22;2064523;28;20384;-57
2021/05/27 04:46:22;;;;;;;6.25;4.47;;;;;;;8.16;91.71;100515.31;2064837;28;20025;-57
2021/05/27 04:47:22;;;;;;;5.45;4.50;;;;;;;8.24;91.33;100520.38;2064556;28;20018;-57
2021/05/27 04:48:22;;;;;;;6.90;4.30;;;;;;;8.27;91.36;100522.94;2064763;28;20025;-57
2021/05/27 04:49:23;;;;;;;8.50;4.07;;;;;;;8.31;91.11;100522.00;2064578;28;20530;-57
2021/05/27 04:50:24;;;;;;;6.80;4.50;;;;;;;8.37;90.51;100514.13;2064786;28;20024;-57
2021/05/27 04:51:24;;;;;;;5.43;3.78;;;;;;;8.38;90.54;100526.22;2064659;28;20505;-57
2021/05/27 04:52:25;;;;;;;8.67;4.10;;;;;;;8.47;90.29;100517.47;2071064;28;20041;-58
2021/05/27 04:53:26;;;;;;;4.73;4.10;;;;;;;8.55;90.14;100531.16;2072590;28;20036;-57
2021/05/27 04:54:26;;;;;;;7.10;4.43;;;;;;;8.57;89.73;100524.22;2072733;28;20141;-57
2021/05/27 04:55:27;;;;;;;4.43;3.97;;;;;;;8.67;89.61;100524.91;2072634;28;20025;-58